createdAt,value
2023-05-11T00:00:37.059Z,13.50
2023-05-11T00:03:04.204Z,13.50
2023-05-11T00:05:31.074Z,13.60
2023-05-11T00:07:57.821Z,13.50
2023-05-11T00:10:24.603Z,13.50
2023-05-11T00:12:51.483Z,13.60
2023-05-11T00:15:18.319Z,13.60
2023-05-11T00:17:45.384Z,13.60
2023-05-11T00:20:12.321Z,13.60
2023-05-11T00:22:39.241Z,13.60
2023-05-11T00:25:06.750Z,13.60
2023-05-11T00:27:33.767Z,13.50
2023-05-11T00:30:00.602Z,13.50
2023-05-11T00:32:27.483Z,13.50
2023-05-11T00:34:54.730Z,13.50
2023-05-11T00:37:21.820Z,13.50
2023-05-11T00:39:48.846Z,13.50
2023-05-11T00:42:15.800Z,13.50
2023-05-11T00:44:43.228Z,13.40
2023-05-11T00:47:10.121Z,13.50
2023-05-11T00:49:37.048Z,13.50
2023-05-11T00:52:04.219Z,13.50
2023-05-11T00:54:31.703Z,13.50
2023-05-11T00:56:58.603Z,13.40
2023-05-11T00:59:25.472Z,13.40
2023-05-11T01:01:52.799Z,13.40
2023-05-11T01:04:19.885Z,13.40
2023-05-11T01:07:06.565Z,13.40
2023-05-11T01:10:04.150Z,13.40
2023-05-11T01:13:04.383Z,13.40
2023-05-11T01:15:40.242Z,13.40
2023-05-11T01:18:21.756Z,13.40
2023-05-11T01:20:56.642Z,13.40
2023-05-11T01:23:54.924Z,13.40
2023-05-11T01:26:27.936Z,13.40
2023-05-11T01:29:27.111Z,13.40
2023-05-11T01:31:56.024Z,13.20
2023-05-11T01:34:26.764Z,13.30
2023-05-11T01:36:58.960Z,13.20
2023-05-11T01:39:34.519Z,13.20
2023-05-11T01:42:08.474Z,13.10
2023-05-11T01:44:37.367Z,13.10
2023-05-11T01:47:05.446Z,13.10
2023-05-11T01:49:36.437Z,13.10
2023-05-11T01:52:05.759Z,13.00
2023-05-11T01:54:33.766Z,13.00
2023-05-11T01:57:02.243Z,13.10
2023-05-11T01:59:30.914Z,13.00
2023-05-11T02:01:58.704Z,13.00
2023-05-11T02:04:26.536Z,12.90
2023-05-11T02:06:54.745Z,13.00
2023-05-11T02:09:23.736Z,12.90
2023-05-11T02:11:51.886Z,12.90
2023-05-11T02:14:21.639Z,13.00
2023-05-11T02:16:49.824Z,12.90
2023-05-11T02:19:17.796Z,12.90
2023-05-11T02:21:46.292Z,12.90
2023-05-11T02:24:14.714Z,12.90
2023-05-11T02:26:41.664Z,12.80
2023-05-11T02:29:08.618Z,12.80
2023-05-11T02:31:44.368Z,12.80
2023-05-11T02:34:24.574Z,12.80
2023-05-11T02:36:55.690Z,12.70
2023-05-11T02:39:26.961Z,12.70
2023-05-11T02:41:58.259Z,12.70
2023-05-11T02:44:30.870Z,12.70
2023-05-11T02:47:02.512Z,12.70
2023-05-11T02:49:32.479Z,12.60
2023-05-11T02:52:01.401Z,12.70
2023-05-11T02:54:29.242Z,12.60
2023-05-11T02:56:57.376Z,12.60
2023-05-11T02:59:25.209Z,12.70
2023-05-11T03:01:52.742Z,12.60
2023-05-11T03:04:19.951Z,12.60
2023-05-11T03:06:46.905Z,12.60
2023-05-11T03:09:14.065Z,12.60
2023-05-11T03:11:46.127Z,12.50
2023-05-11T03:14:13.953Z,12.50
2023-05-11T03:16:42.451Z,12.30
2023-05-11T03:19:10.088Z,12.50
2023-05-11T03:21:38.888Z,12.50
2023-05-11T03:24:10.338Z,12.50
2023-05-11T03:26:37.714Z,12.30
2023-05-11T03:29:07.006Z,12.50
2023-05-11T03:31:34.096Z,12.50
2023-05-11T03:34:00.990Z,12.50
2023-05-11T03:36:30.589Z,12.50
2023-05-11T03:38:58.657Z,12.40
2023-05-11T03:41:32.137Z,12.50
2023-05-11T03:44:00.953Z,12.50
2023-05-11T03:46:29.882Z,12.40
2023-05-11T03:48:57.598Z,12.50
2023-05-11T03:51:27.133Z,12.30
2023-05-11T03:53:54.300Z,12.30
2023-05-11T03:56:21.521Z,12.30
2023-05-11T03:58:49.037Z,12.20
2023-05-11T04:01:15.870Z,12.30
2023-05-11T04:03:53.543Z,12.30
2023-05-11T04:06:21.777Z,12.30
2023-05-11T04:08:57.125Z,12.30
2023-05-11T04:11:24.014Z,12.30
2023-05-11T04:13:50.768Z,12.30
2023-05-11T04:16:17.610Z,12.30
2023-05-11T04:18:44.613Z,12.40
2023-05-11T04:21:11.470Z,12.30
2023-05-11T04:23:38.726Z,12.30
2023-05-11T04:26:05.618Z,12.30
2023-05-11T04:28:32.426Z,12.40
2023-05-11T04:30:59.335Z,12.40
2023-05-11T04:33:26.214Z,12.40
2023-05-11T04:35:55.387Z,12.40
2023-05-11T04:38:23.653Z,12.40
2023-05-11T04:40:50.828Z,12.50
2023-05-11T04:43:19.413Z,12.50
2023-05-11T04:45:50.432Z,12.60
2023-05-11T04:48:22.322Z,12.50
2023-05-11T04:50:49.259Z,12.60
2023-05-11T04:53:18.512Z,12.60
2023-05-11T04:55:46.852Z,12.70
2023-05-11T04:58:13.909Z,12.60
2023-05-11T05:00:41.139Z,12.70
2023-05-11T05:03:08.051Z,12.70
2023-05-11T05:05:34.888Z,12.70
2023-05-11T05:08:02.950Z,12.70
2023-05-11T05:10:29.753Z,12.70
2023-05-11T05:12:57.981Z,12.80
2023-05-11T05:15:24.958Z,12.70
2023-05-11T05:17:52.135Z,12.70
2023-05-11T05:20:19.533Z,12.80
2023-05-11T05:22:47.125Z,12.80
2023-05-11T05:25:14.112Z,13.00
2023-05-11T05:27:41.027Z,13.10
2023-05-11T05:30:11.492Z,12.90
2023-05-11T05:32:38.630Z,13.00
2023-05-11T05:35:05.819Z,13.10
2023-05-11T05:37:32.948Z,13.20
2023-05-11T05:40:00.402Z,13.30
2023-05-11T05:42:27.309Z,13.40
2023-05-11T05:44:54.375Z,13.50
2023-05-11T05:47:22.296Z,13.60
2023-05-11T05:49:49.299Z,13.80
2023-05-11T05:52:16.433Z,14.00
2023-05-11T05:54:44.214Z,14.00
2023-05-11T05:57:12.322Z,14.40
2023-05-11T05:59:40.754Z,14.50
2023-05-11T06:02:09.461Z,14.60
2023-05-11T06:04:36.407Z,14.50
2023-05-11T06:07:03.283Z,14.90
2023-05-11T06:09:30.042Z,15.00
2023-05-11T06:11:57.300Z,15.10
2023-05-11T06:14:25.809Z,15.20
2023-05-11T06:16:53.685Z,15.20
2023-05-11T06:19:21.622Z,15.30
2023-05-11T06:21:48.629Z,15.30
2023-05-11T06:24:15.865Z,15.40
2023-05-11T06:26:44.821Z,15.50
2023-05-11T06:29:11.702Z,15.70
2023-05-11T06:31:39.362Z,15.80
2023-05-11T06:34:09.297Z,15.90
2023-05-11T06:36:36.878Z,15.90
2023-05-11T06:39:04.644Z,16.00
2023-05-11T06:41:31.489Z,15.80
2023-05-11T06:43:58.238Z,15.60
2023-05-11T06:46:36.005Z,15.60
2023-05-11T06:49:03.083Z,15.70
2023-05-11T06:51:30.761Z,15.80
2023-05-11T06:53:57.697Z,15.90
2023-05-11T06:56:24.548Z,15.90
2023-05-11T06:58:51.468Z,15.90
2023-05-11T07:01:18.355Z,15.80
2023-05-11T07:03:45.357Z,15.80
2023-05-11T07:06:12.264Z,15.60
2023-05-11T07:08:39.235Z,15.50
2023-05-11T07:11:07.042Z,15.40
2023-05-11T07:13:33.930Z,15.30
2023-05-11T07:16:01.053Z,15.40
2023-05-11T07:18:29.863Z,15.50
2023-05-11T07:20:57.085Z,15.50
2023-05-11T07:23:23.897Z,15.60
2023-05-11T07:25:51.715Z,15.70
2023-05-11T07:28:18.538Z,15.70
2023-05-11T07:30:45.374Z,15.70
2023-05-11T07:33:12.308Z,15.60
2023-05-11T07:35:39.137Z,15.50
2023-05-11T07:38:08.054Z,15.50
2023-05-11T07:40:35.551Z,15.50
2023-05-11T07:43:02.355Z,15.60
2023-05-11T07:45:29.265Z,15.70
2023-05-11T07:47:56.169Z,15.90
2023-05-11T07:50:24.693Z,16.00
2023-05-11T07:52:52.118Z,16.10
2023-05-11T07:55:20.378Z,16.20
2023-05-11T07:57:47.589Z,16.30
2023-05-11T08:00:15.415Z,16.20
2023-05-11T08:02:42.891Z,16.10
2023-05-11T08:05:09.911Z,16.10
2023-05-11T08:07:37.845Z,16.10
2023-05-11T08:10:07.485Z,16.00
2023-05-11T08:12:34.971Z,15.90
2023-05-11T08:15:02.769Z,15.80
2023-05-11T08:17:30.172Z,15.70
2023-05-11T08:19:57.287Z,15.80
2023-05-11T08:22:24.201Z,15.90
2023-05-11T08:24:51.338Z,16.00
2023-05-11T08:27:18.180Z,16.00
2023-05-11T08:29:45.348Z,16.00
2023-05-11T08:32:12.244Z,16.00
2023-05-11T08:34:39.526Z,16.00
2023-05-11T08:37:07.695Z,15.90
2023-05-11T08:39:46.509Z,16.00
2023-05-11T08:42:16.497Z,16.20
2023-05-11T08:44:44.481Z,16.50
2023-05-11T08:47:22.538Z,16.70
2023-05-11T08:49:54.256Z,16.90
2023-05-11T08:52:22.504Z,16.90
2023-05-11T08:54:49.441Z,16.90
2023-05-11T08:57:17.499Z,16.80
2023-05-11T08:59:48.428Z,16.70
2023-05-11T09:02:18.645Z,16.80
2023-05-11T09:04:48.208Z,16.80
2023-05-11T09:07:19.777Z,16.90
2023-05-11T09:09:48.576Z,17.00
2023-05-11T09:12:17.032Z,17.10
2023-05-11T09:14:44.310Z,17.20
2023-05-11T09:17:12.335Z,17.20
2023-05-11T09:20:00.576Z,17.20
2023-05-11T09:22:30.298Z,17.10
2023-05-11T09:24:59.251Z,17.30
2023-05-11T09:27:27.467Z,17.30
2023-05-11T09:29:54.819Z,17.30
2023-05-11T09:32:21.655Z,17.40
2023-05-11T09:34:49.079Z,17.50
2023-05-11T09:37:17.747Z,17.60
2023-05-11T09:40:14.024Z,17.70
2023-05-11T09:42:31.903Z,17.70
2023-05-11T09:44:58.828Z,17.70
2023-05-11T09:47:27.434Z,18.10
2023-05-11T09:49:54.365Z,18.40
2023-05-11T09:52:21.337Z,18.50
2023-05-11T09:54:51.331Z,18.60
2023-05-11T09:57:29.288Z,18.80
2023-05-11T09:59:59.529Z,18.90
2023-05-11T10:02:28.355Z,19.00
2023-05-11T10:04:58.288Z,18.90
2023-05-11T10:07:33.084Z,18.60
2023-05-11T10:10:02.844Z,18.70
2023-05-11T10:12:33.459Z,19.30
2023-05-11T10:15:09.304Z,19.60
2023-05-11T10:17:37.271Z,19.80
2023-05-11T10:20:06.020Z,20.20
2023-05-11T10:22:33.465Z,20.60
2023-05-11T10:25:00.788Z,21.00
2023-05-11T10:27:28.000Z,21.20
2023-05-11T10:29:55.576Z,21.40
2023-05-11T10:32:22.675Z,21.00
2023-05-11T10:34:50.651Z,21.10
2023-05-11T10:37:18.195Z,21.30
2023-05-11T10:39:48.470Z,21.30
2023-05-11T10:42:39.971Z,21.40
2023-05-11T10:45:46.684Z,21.60
2023-05-11T10:48:16.497Z,21.90
2023-05-11T10:50:56.431Z,22.20
2023-05-11T10:53:29.363Z,22.20
2023-05-11T10:56:15.115Z,22.10
2023-05-11T10:59:03.921Z,21.80
2023-05-11T11:01:40.918Z,21.00
2023-05-11T11:04:13.166Z,20.40
2023-05-11T11:06:44.338Z,20.00
2023-05-11T11:09:16.218Z,19.80
2023-05-11T11:11:47.100Z,19.90
2023-05-11T11:14:15.912Z,20.10
2023-05-11T11:17:22.168Z,20.20
2023-05-11T11:19:49.117Z,19.90
2023-05-11T11:22:34.662Z,19.70
2023-05-11T11:25:02.500Z,19.90
2023-05-11T11:27:41.694Z,20.00
2023-05-11T11:30:29.599Z,20.30
2023-05-11T11:33:16.545Z,20.70
2023-05-11T11:35:43.591Z,20.80
2023-05-11T11:38:18.140Z,20.80
2023-05-11T11:40:52.527Z,20.50
2023-05-11T11:43:28.928Z,20.40
2023-05-11T11:46:00.489Z,20.70
2023-05-11T11:48:38.158Z,20.90
2023-05-11T11:51:08.300Z,21.00
2023-05-11T11:53:38.185Z,21.20
2023-05-11T11:56:07.548Z,21.40
2023-05-11T11:58:43.449Z,21.30
2023-05-11T12:01:15.236Z,21.50
2023-05-11T12:03:48.890Z,21.80
2023-05-11T12:06:20.921Z,21.80
2023-05-11T12:08:48.416Z,21.10
2023-05-11T12:11:18.001Z,20.40
2023-05-11T12:13:45.226Z,19.90
2023-05-11T12:16:13.323Z,19.30
2023-05-11T12:18:41.674Z,18.90
2023-05-11T12:21:23.840Z,18.90
2023-05-11T12:24:04.243Z,18.90
2023-05-11T12:26:32.834Z,18.90
2023-05-11T12:29:11.286Z,18.90
2023-05-11T12:31:40.103Z,19.10
2023-05-11T12:34:07.371Z,19.30
2023-05-11T12:36:34.754Z,19.50
2023-05-11T12:39:01.655Z,19.60
2023-05-11T12:41:28.578Z,19.60
2023-05-11T12:43:56.132Z,19.60
2023-05-11T12:46:23.912Z,19.60
2023-05-11T12:48:52.562Z,19.40
2023-05-11T12:51:57.289Z,19.10
2023-05-11T12:54:40.947Z,19.00
2023-05-11T12:57:21.772Z,18.90
2023-05-11T12:59:48.593Z,18.90
2023-05-11T13:02:20.421Z,19.00
2023-05-11T13:04:48.126Z,19.30
2023-05-11T13:07:25.052Z,19.50
2023-05-11T13:10:00.413Z,19.90
2023-05-11T13:12:31.932Z,20.30
2023-05-11T13:15:15.176Z,20.70
2023-05-11T13:17:43.412Z,20.80
2023-05-11T13:20:20.699Z,20.80
2023-05-11T13:22:49.262Z,20.80
2023-05-11T13:25:17.406Z,20.90
2023-05-11T13:27:44.672Z,21.50
2023-05-11T13:30:12.543Z,22.40
2023-05-11T13:32:39.540Z,23.10
2023-05-11T13:35:06.917Z,23.30
2023-05-11T13:37:33.793Z,23.60
2023-05-11T13:40:00.873Z,23.60
2023-05-11T13:42:28.533Z,22.60
2023-05-11T13:44:55.667Z,21.90
2023-05-11T13:47:22.661Z,21.50
2023-05-11T13:49:49.425Z,21.40
2023-05-11T13:52:16.314Z,21.40
2023-05-11T13:54:43.206Z,21.40
2023-05-11T13:57:10.292Z,21.40
2023-05-11T13:59:37.219Z,21.50
2023-05-11T14:02:04.359Z,21.40
2023-05-11T14:04:31.501Z,21.50
2023-05-11T14:06:59.003Z,21.60
2023-05-11T14:09:26.144Z,21.30
2023-05-11T14:11:53.019Z,21.70
2023-05-11T14:14:19.871Z,22.20
2023-05-11T14:16:46.815Z,23.00
2023-05-11T14:19:13.829Z,23.70
2023-05-11T14:21:40.851Z,23.90
2023-05-11T14:24:12.614Z,23.30
2023-05-11T14:26:40.417Z,22.20
2023-05-11T14:29:07.614Z,21.00
2023-05-11T14:31:35.631Z,20.10
2023-05-11T14:34:05.846Z,19.60
2023-05-11T14:36:32.887Z,19.10
2023-05-11T14:38:59.742Z,18.80
2023-05-11T14:41:26.589Z,18.50
2023-05-11T14:43:53.417Z,18.30
2023-05-11T14:46:21.530Z,17.90
2023-05-11T14:48:48.392Z,17.70
2023-05-11T14:51:15.343Z,17.60
2023-05-11T14:53:42.209Z,17.50
2023-05-11T14:56:09.385Z,17.50
2023-05-11T14:58:36.230Z,17.40
2023-05-11T15:01:04.186Z,17.20
2023-05-11T15:03:31.314Z,17.10
2023-05-11T15:05:58.481Z,17.10
2023-05-11T15:08:30.093Z,17.20
2023-05-11T15:10:58.107Z,17.30
2023-05-11T15:13:25.485Z,17.40
2023-05-11T15:15:52.388Z,17.50
2023-05-11T15:18:19.419Z,17.50
2023-05-11T15:20:48.035Z,17.60
2023-05-11T15:23:17.308Z,17.70
2023-05-11T15:25:44.930Z,17.70
2023-05-11T15:28:12.312Z,17.60
2023-05-11T15:30:41.557Z,17.50
2023-05-11T15:33:09.958Z,17.50
2023-05-11T15:35:38.105Z,17.50
2023-05-11T15:38:06.188Z,17.70
2023-05-11T15:40:33.371Z,18.00
2023-05-11T15:43:03.649Z,18.20
2023-05-11T15:45:30.694Z,18.40
2023-05-11T15:47:58.277Z,18.60
2023-05-11T15:50:26.420Z,18.70
2023-05-11T15:52:53.234Z,18.80
2023-05-11T15:55:20.171Z,18.60
2023-05-11T15:57:47.411Z,18.60
2023-05-11T16:00:16.302Z,18.80
2023-05-11T16:02:45.601Z,19.00
2023-05-11T16:05:12.525Z,19.30
2023-05-11T16:07:40.603Z,19.30
2023-05-11T16:10:07.866Z,19.20
2023-05-11T16:12:34.666Z,18.90
2023-05-11T16:15:08.131Z,18.80
2023-05-11T16:17:35.428Z,18.70
2023-05-11T16:20:04.501Z,18.50
2023-05-11T16:22:31.426Z,18.50
2023-05-11T16:24:58.284Z,18.60
2023-05-11T16:27:25.275Z,18.60
2023-05-11T16:29:52.376Z,18.50
2023-05-11T16:32:20.305Z,18.40
2023-05-11T16:34:47.265Z,18.40
2023-05-11T16:37:14.125Z,18.50
2023-05-11T16:39:41.090Z,18.60
2023-05-11T16:42:08.019Z,18.60
2023-05-11T16:44:34.881Z,18.60
2023-05-11T16:47:01.976Z,18.50
2023-05-11T16:49:28.873Z,18.60
2023-05-11T16:51:55.803Z,18.70
2023-05-11T16:54:22.694Z,18.80
2023-05-11T16:56:49.667Z,18.90
2023-05-11T16:59:16.635Z,18.90
2023-05-11T17:01:45.232Z,19.00
2023-05-11T17:04:12.853Z,19.10
2023-05-11T17:06:41.693Z,19.20
2023-05-11T17:09:08.611Z,19.30
2023-05-11T17:11:35.506Z,19.40
2023-05-11T17:14:03.795Z,19.40
2023-05-11T17:16:30.785Z,19.30
2023-05-11T17:18:59.112Z,19.10
2023-05-11T17:21:26.195Z,19.10
2023-05-11T17:23:53.206Z,18.90
2023-05-11T17:26:20.016Z,18.80
2023-05-11T17:28:47.923Z,18.60
2023-05-11T17:31:15.521Z,18.40
2023-05-11T17:33:42.833Z,18.30
2023-05-11T17:36:11.886Z,18.10
2023-05-11T17:38:38.892Z,18.00
2023-05-11T17:41:05.832Z,17.80
2023-05-11T17:43:34.470Z,17.70
2023-05-11T17:46:03.980Z,17.60
2023-05-11T17:48:31.944Z,17.40
2023-05-11T17:50:59.062Z,17.30
2023-05-11T17:53:26.670Z,17.20
2023-05-11T17:55:53.567Z,17.10
2023-05-11T17:58:20.492Z,17.10
2023-05-11T18:00:49.072Z,17.00
2023-05-11T18:03:16.800Z,16.90
2023-05-11T18:08:14.523Z,16.90
2023-05-11T18:10:41.391Z,16.90
2023-05-11T18:13:08.735Z,16.90
2023-05-11T18:15:35.559Z,16.90
2023-05-11T18:18:03.341Z,16.90
2023-05-11T18:20:30.722Z,17.00
2023-05-11T18:22:57.640Z,17.00
2023-05-11T18:25:24.922Z,17.00
2023-05-11T18:27:51.981Z,16.90
2023-05-11T18:30:19.171Z,17.00
2023-05-11T18:32:46.223Z,17.00
2023-05-11T18:35:13.178Z,17.00
2023-05-11T18:37:40.081Z,16.90
2023-05-11T18:40:07.776Z,17.00
2023-05-11T18:42:34.681Z,16.90
2023-05-11T18:45:01.872Z,16.80
2023-05-11T18:47:28.819Z,16.80
2023-05-11T18:49:57.134Z,16.80
2023-05-11T18:52:23.969Z,16.70
2023-05-11T18:54:50.857Z,16.80
2023-05-11T18:57:20.076Z,16.70
2023-05-11T18:59:47.606Z,16.70
2023-05-11T19:02:14.712Z,16.70
2023-05-11T19:04:41.462Z,16.70
2023-05-11T19:07:08.474Z,16.60
2023-05-11T19:09:35.951Z,16.50
2023-05-11T19:12:03.625Z,16.50
2023-05-11T19:14:34.665Z,16.40
2023-05-11T19:17:02.348Z,16.20
2023-05-11T19:19:29.274Z,16.20
2023-05-11T19:21:56.181Z,16.00
2023-05-11T19:24:22.896Z,16.00
2023-05-11T19:27:02.596Z,15.90
2023-05-11T19:29:33.392Z,15.80
2023-05-11T19:32:00.427Z,15.80
2023-05-11T19:34:27.504Z,15.70
2023-05-11T19:36:54.321Z,15.60
2023-05-11T19:39:21.276Z,15.50
2023-05-11T19:41:48.115Z,15.50
2023-05-11T19:44:14.915Z,15.40
2023-05-11T19:46:46.581Z,15.40
2023-05-11T19:49:15.101Z,15.40
2023-05-11T19:51:42.563Z,15.40
2023-05-11T19:54:10.702Z,15.30
2023-05-11T19:56:38.097Z,15.30
2023-05-11T19:59:04.952Z,15.20
2023-05-11T20:01:31.947Z,15.20
2023-05-11T20:03:59.333Z,15.10
2023-05-11T20:06:26.154Z,15.10
2023-05-11T20:08:54.059Z,15.10
2023-05-11T20:11:21.951Z,15.00
2023-05-11T20:13:49.240Z,15.00
2023-05-11T20:16:16.248Z,15.00
2023-05-11T20:18:43.279Z,15.00
2023-05-11T20:21:10.214Z,15.00
2023-05-11T20:23:37.726Z,15.00
2023-05-11T20:26:04.939Z,15.00
2023-05-11T20:28:32.810Z,15.00
2023-05-11T20:30:59.669Z,14.90
2023-05-11T20:35:57.234Z,14.90
2023-05-11T20:38:24.004Z,14.90
2023-05-11T20:40:57.156Z,14.80
2023-05-11T20:43:25.959Z,14.70
2023-05-11T20:45:52.911Z,14.90
2023-05-11T20:48:32.063Z,14.90
2023-05-11T20:51:05.732Z,14.90
2023-05-11T20:53:32.619Z,15.00
2023-05-11T20:56:01.066Z,15.00
2023-05-11T20:58:30.924Z,14.90
2023-05-11T21:00:57.784Z,15.00
2023-05-11T21:03:26.652Z,15.00
2023-05-11T21:05:54.677Z,15.00
2023-05-11T21:08:21.549Z,15.00
2023-05-11T21:10:48.412Z,15.00
2023-05-11T21:13:15.609Z,15.00
2023-05-11T21:15:42.517Z,15.00
2023-05-11T21:18:09.393Z,15.00
2023-05-11T21:20:36.298Z,15.00
2023-05-11T21:23:03.656Z,15.00
2023-05-11T21:25:30.525Z,15.00
2023-05-11T21:27:57.431Z,14.90
2023-05-11T21:30:25.185Z,14.90
2023-05-11T21:32:54.208Z,14.90
2023-05-11T21:35:24.433Z,14.90
2023-05-11T21:37:52.455Z,14.90
2023-05-11T21:40:22.584Z,14.90
2023-05-11T21:42:49.500Z,14.90
2023-05-11T21:45:19.839Z,15.00
2023-05-11T21:47:46.850Z,15.00
2023-05-11T21:50:13.738Z,14.90
2023-05-11T21:52:40.512Z,14.90
2023-05-11T21:55:07.964Z,14.80
2023-05-11T21:57:35.033Z,14.90
2023-05-11T22:00:02.188Z,14.90
2023-05-11T22:02:32.495Z,14.90
2023-05-11T22:04:59.509Z,14.80
2023-05-11T22:07:26.281Z,14.90
2023-05-11T22:09:53.134Z,14.90
2023-05-11T22:12:19.970Z,14.90
2023-05-11T22:14:46.746Z,14.90
2023-05-11T22:17:13.591Z,14.90
2023-05-11T22:19:40.530Z,14.90
2023-05-11T22:22:07.533Z,14.90
2023-05-11T22:24:34.265Z,14.90
2023-05-11T22:27:01.208Z,14.90
2023-05-11T22:29:28.346Z,14.90
2023-05-11T22:31:55.329Z,14.90
2023-05-11T22:34:22.266Z,14.90
2023-05-11T22:36:49.450Z,14.90
2023-05-11T22:39:16.277Z,14.90
2023-05-11T22:41:43.077Z,14.90
2023-05-11T22:44:10.490Z,14.90
2023-05-11T22:46:37.327Z,14.80
2023-05-11T22:49:04.408Z,14.80
2023-05-11T22:51:31.332Z,14.80
2023-05-11T22:53:58.211Z,14.80
2023-05-11T22:56:26.060Z,14.80
2023-05-11T22:58:54.884Z,14.80
2023-05-11T23:01:21.814Z,14.80
2023-05-11T23:03:48.763Z,14.80
2023-05-11T23:06:15.715Z,14.80
2023-05-11T23:08:42.904Z,14.70
2023-05-11T23:11:09.814Z,14.90
2023-05-11T23:13:37.307Z,14.80
2023-05-11T23:16:04.603Z,14.80
2023-05-11T23:18:32.002Z,14.80
2023-05-11T23:20:59.847Z,14.70
2023-05-11T23:23:27.094Z,14.70
2023-05-11T23:25:53.977Z,14.70
2023-05-11T23:28:20.864Z,14.70
2023-05-11T23:30:47.624Z,14.60
2023-05-11T23:33:15.055Z,14.70
2023-05-11T23:35:42.013Z,14.70
2023-05-11T23:38:08.878Z,14.70
2023-05-11T23:40:36.193Z,14.60
2023-05-11T23:43:03.121Z,14.60
2023-05-11T23:45:30.697Z,14.60
2023-05-11T23:47:57.491Z,14.60
2023-05-11T23:50:24.403Z,14.50
2023-05-11T23:52:51.586Z,14.50
2023-05-11T23:55:18.542Z,14.50
2023-05-11T23:57:45.645Z,14.60
